Terminal Aerodrome Forecast
Issued by NWS

Home | Current Version | Previous Version | Graphics & Text | Print | Product List | Glossary On
Versions: 1 2 3 4 5 6 7 8 9 10 11 12 13 14 15 16 17 18 19
000
FTUS43 KMPX 250700 AAA
TAFRWF
TAF AMD
KRWF 250719Z 2507/2606 13009KT P6SM SCT020 BKN080
     FM250900 16009KT 5SM TSRA SCT020 BKN035CB
      TEMPO 2509/2510 2SM TSRA BR OVC035CB
     FM251030 16009KT P6SM SCT020 BKN035
     FM251800 27005KT P6SM BKN040
     FM260100 30005KT P6SM SKC=

USA.gov is the U.S. government's official web portal to all federal, state and local government web resources and services.